Time;durP1;ratioP1;P1;durP2;ratioP2;P2;SDS_P1;SDS_P2;PMS_P1;PMS_P2;Temp;Humidity;BMP_temperature;BMP_pressure;BME280_temperature;BME280_humidity;BME280_pressure;Samples;Min_cycle;Max_cycle;Signal;HPM_P1;HPM_P2
2024/04/21 00:01:36;;;;;;;8.05;4.43;;;;;;;;;;5379859;26;20011;-61
2024/04/21 00:04:03;;;;;;;7.43;4.65;;;;;;;;;;5379916;26;20008;-62
2024/04/21 00:06:31;;;;;;;7.78;4.32;;;;;;;;;;5394412;26;20034;-61
2024/04/21 00:08:57;;;;;;;7.93;3.92;;;;;;;;;;5380001;26;20015;-62
2024/04/21 00:11:26;;;;;;;6.28;3.83;;;;;;;;;;5379559;26;20435;-62
2024/04/21 00:13:52;;;;;;;6.57;4.25;;;;;;;;;;5380006;26;20008;-62
2024/04/21 00:16:20;;;;;;;6.13;3.70;;;;;;;;;;5379557;26;20015;-62
2024/04/21 00:18:49;;;;;;;6.22;3.78;;;;;;;;;;5379529;26;20005;-62
2024/04/21 00:21:17;;;;;;;6.65;3.63;;;;;;;;;;5379847;26;20015;-62
2024/04/21 00:23:43;;;;;;;7.20;4.00;;;;;;;;;;5379624;26;20438;-62
2024/04/21 00:26:12;;;;;;;7.18;3.55;;;;;;;;;;5379457;26;20008;-62
2024/04/21 00:28:37;;;;;;;8.90;4.47;;;;;;;;;;5378411;26;19996;-58
2024/04/21 00:31:06;;;;;;;6.53;3.85;;;;;;;;;;5379226;26;20157;-62
2024/04/21 00:33:32;;;;;;;6.47;3.78;;;;;;;;;;5379677;26;20008;-60
2024/04/21 00:36:03;;;;;;;6.22;3.72;;;;;;;;;;5379428;26;20452;-62
2024/04/21 00:38:29;;;;;;;6.15;3.67;;;;;;;;;;5379391;26;20011;-62
2024/04/21 00:40:57;;;;;;;6.15;3.85;;;;;;;;;;5379565;26;20012;-62
2024/04/21 00:43:23;;;;;;;8.63;4.50;;;;;;;;;;5379408;26;20000;-62
2024/04/21 00:45:53;;;;;;;8.13;4.22;;;;;;;;;;5379659;26;20004;-62
2024/04/21 00:48:19;;;;;;;7.97;4.38;;;;;;;;;;5374277;26;20416;-62
2024/04/21 00:50:50;;;;;;;7.50;4.40;;;;;;;;;;5377986;26;20420;-62
2024/04/21 00:53:21;;;;;;;8.70;3.88;;;;;;;;;;5373703;26;20016;-62
2024/04/21 00:55:51;;;;;;;7.05;4.32;;;;;;;;;;5378484;26;20420;-62
2024/04/21 00:58:18;;;;;;;6.85;4.78;;;;;;;;;;5379014;26;20004;-61
2024/04/21 01:00:48;;;;;;;8.45;4.68;;;;;;;;;;5379465;26;20027;-60
2024/04/21 01:03:14;;;;;;;7.65;4.47;;;;;;;;;;5378952;26;20000;-61
2024/04/21 01:05:43;;;;;;;8.27;4.35;;;;;;;;;;5378970;26;20471;-61
2024/04/21 01:08:09;;;;;;;7.75;4.28;;;;;;;;;;5378758;26;20347;-60
2024/04/21 01:10:40;;;;;;;8.68;5.53;;;;;;;;;;5379204;26;20008;-62
2024/04/21 01:13:09;;;;;;;7.28;4.40;;;;;;;;;;5379209;26;20016;-62
2024/04/21 01:15:38;;;;;;;7.20;4.60;;;;;;;;;;5379485;26;20019;-61
2024/04/21 01:18:04;;;;;;;7.60;4.68;;;;;;;;;;5393679;26;20008;-61
2024/04/21 01:20:34;;;;;;;7.93;4.35;;;;;;;;;;5379019;26;20000;-61
2024/04/21 01:23:03;;;;;;;7.43;4.05;;;;;;;;;;5376175;26;20022;-61
2024/04/21 01:25:31;;;;;;;7.32;4.57;;;;;;;;;;5378303;26;20028;-61
2024/04/21 01:27:57;;;;;;;8.13;4.60;;;;;;;;;;5376863;26;20000;-61
2024/04/21 01:30:26;;;;;;;8.77;4.30;;;;;;;;;;5378776;26;20010;-61
2024/04/21 01:32:52;;;;;;;7.43;4.68;;;;;;;;;;5377996;26;20019;-61
2024/04/21 01:35:20;;;;;;;8.45;4.55;;;;;;;;;;5378885;26;20013;-61
2024/04/21 01:37:46;;;;;;;8.52;4.95;;;;;;;;;;5378288;26;20012;-61
2024/04/21 01:40:18;;;;;;;7.63;5.00;;;;;;;;;;5379129;26;20392;-61
2024/04/21 01:42:44;;;;;;;8.57;5.35;;;;;;;;;;5382101;26;20500;-59
2024/04/21 01:45:13;;;;;;;7.53;4.57;;;;;;;;;;5394831;26;20022;-58
2024/04/21 01:47:38;;;;;;;9.05;5.03;;;;;;;;;;5381460;26;20462;-61
2024/04/21 01:50:10;;;;;;;8.00;4.97;;;;;;;;;;5381707;26;20004;-60
2024/04/21 01:52:36;;;;;;;6.97;4.57;;;;;;;;;;5381778;26;20000;-62
2024/04/21 01:55:05;;;;;;;8.07;4.75;;;;;;;;;;5381619;26;20463;-61
2024/04/21 01:57:35;;;;;;;9.43;5.25;;;;;;;;;;5381487;26;20053;-62
2024/04/21 02:00:04;;;;;;;8.25;5.10;;;;;;;;;;5371897;26;20123;-61
2024/04/21 02:02:31;;;;;;;9.93;5.20;;;;;;;;;;5380918;26;20656;-61
2024/04/21 02:05:00;;;;;;;8.15;5.30;;;;;;;;;;5381390;26;20004;-61
2024/04/21 02:07:26;;;;;;;8.18;4.95;;;;;;;;;;5381257;26;20000;-62
2024/04/21 02:09:55;;;;;;;8.27;4.90;;;;;;;;;;5381698;26;20375;-62
2024/04/21 02:12:21;;;;;;;7.95;4.82;;;;;;;;;;5381049;26;20035;-62
2024/04/21 02:14:52;;;;;;;8.73;4.93;;;;;;;;;;5381360;26;20075;-61
2024/04/21 02:17:18;;;;;;;9.50;5.38;;;;;;;;;;5396265;26;20020;-62
2024/04/21 02:19:46;;;;;;;9.15;5.00;;;;;;;;;;5381547;26;19996;-59
2024/04/21 02:22:13;;;;;;;9.13;5.63;;;;;;;;;;5381320;26;20429;-61
2024/04/21 02:24:43;;;;;;;9.45;5.43;;;;;;;;;;5380645;26;20005;-60
2024/04/21 02:27:09;;;;;;;8.38;5.05;;;;;;;;;;5373526;26;20004;-61
2024/04/21 02:29:37;;;;;;;8.27;5.30;;;;;;;;;;5381223;26;19996;-60
2024/04/21 02:32:06;;;;;;;9.05;4.97;;;;;;;;;;5381228;26;20012;-61
2024/04/21 02:34:35;;;;;;;7.70;4.50;;;;;;;;;;5381348;26;20459;-61
2024/04/21 02:37:01;;;;;;;8.43;5.00;;;;;;;;;;5380958;26;20085;-62
2024/04/21 02:39:29;;;;;;;8.30;4.78;;;;;;;;;;5381093;26;20418;-59
2024/04/21 02:41:56;;;;;;;7.90;5.30;;;;;;;;;;5380920;26;20015;-60
2024/04/21 02:44:24;;;;;;;9.38;5.72;;;;;;;;;;5372273;26;20033;-61
2024/04/21 02:46:50;;;;;;;8.50;4.97;;;;;;;;;;5374829;26;20434;-61
2024/04/21 02:49:22;;;;;;;8.93;5.05;;;;;;;;;;5377635;26;20012;-60
2024/04/21 02:51:48;;;;;;;8.13;5.57;;;;;;;;;;5380152;26;20776;-62
2024/04/21 02:54:19;;;;;;;9.73;5.80;;;;;;;;;;5337992;26;1141901;-61
2024/04/21 02:56:45;;;;;;;10.23;5.53;;;;;;;;;;5366437;26;20043;-61
2024/04/21 02:59:13;;;;;;;9.00;5.45;;;;;;;;;;5380751;26;20004;-61
2024/04/21 03:01:39;;;;;;;9.80;6.07;;;;;;;;;;5386316;26;20080;-60
2024/04/21 03:04:08;;;;;;;8.82;5.60;;;;;;;;;;5388364;26;20011;-62
2024/04/21 03:06:37;;;;;;;9.05;5.60;;;;;;;;;;5380598;26;20008;-62
2024/04/21 03:09:05;;;;;;;8.93;5.50;;;;;;;;;;5380308;26;20430;-62
2024/04/21 03:11:31;;;;;;;8.63;5.00;;;;;;;;;;5380930;26;20077;-63
2024/04/21 03:14:00;;;;;;;9.25;5.93;;;;;;;;;;5380793;26;20012;-61
2024/04/21 03:16:26;;;;;;;8.32;5.32;;;;;;;;;;5380560;26;20085;-61
2024/04/21 03:18:54;;;;;;;9.32;5.70;;;;;;;;;;5381095;26;20414;-62
2024/04/21 03:21:20;;;;;;;9.48;5.10;;;;;;;;;;5380727;26;20000;-62
2024/04/21 03:23:52;;;;;;;8.20;5.00;;;;;;;;;;5380124;26;20483;-62
2024/04/21 03:26:18;;;;;;;9.75;5.18;;;;;;;;;;5380247;26;20555;-62
2024/04/21 03:28:46;;;;;;;8.18;5.18;;;;;;;;;;5380117;26;20012;-58
2024/04/21 03:31:12;;;;;;;8.45;5.57;;;;;;;;;;5380493;26;20004;-61
2024/04/21 03:33:41;;;;;;;9.27;5.65;;;;;;;;;;5380460;26;20004;-63
2024/04/21 03:36:08;;;;;;;8.65;5.43;;;;;;;;;;5380690;26;20004;-61
2024/04/21 03:38:37;;;;;;;7.97;5.22;;;;;;;;;;5380200;26;20384;-60
2024/04/21 03:41:09;;;;;;;9.45;6.10;;;;;;;;;;5380664;26;20448;-62
2024/04/21 03:43:34;;;;;;;7.90;5.30;;;;;;;;;;5380889;26;19996;-61
2024/04/21 03:46:03;;;;;;;7.90;5.10;;;;;;;;;;5380455;26;20010;-60
2024/04/21 03:48:29;;;;;;;7.10;4.90;;;;;;;;;;5380208;26;20520;-61
2024/04/21 03:50:58;;;;;;;7.43;4.82;;;;;;;;;;5380185;26;20012;-60
2024/04/21 03:53:24;;;;;;;8.57;5.15;;;;;;;;;;5379950;26;20406;-62
2024/04/21 03:55:53;;;;;;;8.13;5.10;;;;;;;;;;5379860;26;20077;-62
2024/04/21 03:58:21;;;;;;;10.70;5.53;;;;;;;;;;5379817;26;19997;-61
2024/04/21 04:00:50;;;;;;;8.48;4.68;;;;;;;;;;5367564;26;20020;-63
2024/04/21 04:03:16;;;;;;;8.50;5.25;;;;;;;;;;5378876;26;19996;-62
2024/04/21 04:05:45;;;;;;;9.40;5.40;;;;;;;;;;5379148;26;20000;-62
2024/04/21 04:08:12;;;;;;;7.28;4.63;;;;;;;;;;5379738;26;20000;-62
2024/04/21 04:10:41;;;;;;;8.18;5.15;;;;;;;;;;5380173;26;20339;-61
2024/04/21 04:13:07;;;;;;;9.07;5.10;;;;;;;;;;5379735;26;20011;-61
2024/04/21 04:15:39;;;;;;;7.82;5.15;;;;;;;;;;5394413;26;19996;-61
2024/04/21 04:18:05;;;;;;;9.32;5.40;;;;;;;;;;5379941;26;20022;-60
2024/04/21 04:20:35;;;;;;;8.40;5.28;;;;;;;;;;5379891;26;20004;-62
2024/04/21 04:23:00;;;;;;;8.30;5.05;;;;;;;;;;5379999;26;20319;-62
2024/04/21 04:25:29;;;;;;;8.00;4.53;;;;;;;;;;5382113;26;20004;-60
2024/04/21 04:27:55;;;;;;;7.60;4.88;;;;;;;;;;5381687;26;20001;-62
2024/04/21 04:30:24;;;;;;;8.15;4.93;;;;;;;;;;5372824;26;20047;-61
2024/04/21 04:32:53;;;;;;;8.38;5.57;;;;;;;;;;5371686;26;20005;-61
2024/04/21 04:35:21;;;;;;;7.50;4.72;;;;;;;;;;5373188;26;20078;-62
2024/04/21 04:37:47;;;;;;;6.82;4.40;;;;;;;;;;5377561;26;20090;-62
2024/04/21 04:40:16;;;;;;;8.52;4.45;;;;;;;;;;5379162;26;20127;-61
2024/04/21 04:42:43;;;;;;;9.30;4.38;;;;;;;;;;5379058;26;20006;-60
2024/04/21 04:45:12;;;;;;;6.63;4.47;;;;;;;;;;5379571;26;20004;-62
2024/04/21 04:47:38;;;;;;;8.10;4.88;;;;;;;;;;5379463;26;20471;-60
2024/04/21 04:50:10;;;;;;;9.00;5.22;;;;;;;;;;5393581;26;20004;-61
2024/04/21 04:52:36;;;;;;;8.63;5.72;;;;;;;;;;5379222;26;20023;-60
2024/04/21 04:55:05;;;;;;;9.68;5.75;;;;;;;;;;5379052;26;20471;-61
2024/04/21 04:57:34;;;;;;;11.32;6.15;;;;;;;;;;5379259;26;20004;-62
2024/04/21 05:00:00;;;;;;;8.60;5.57;;;;;;;;;;5379356;26;20475;-62
2024/04/21 05:02:28;;;;;;;9.80;5.55;;;;;;;;;;5379312;26;20050;-61
2024/04/21 05:04:54;;;;;;;8.82;5.60;;;;;;;;;;5379718;26;20000;-61
2024/04/21 05:07:26;;;;;;;8.82;5.32;;;;;;;;;;5378994;26;20016;-61
2024/04/21 05:09:51;;;;;;;8.70;4.93;;;;;;;;;;5379870;26;20004;-61
2024/04/21 05:12:20;;;;;;;9.52;4.97;;;;;;;;;;5379876;26;20471;-61
2024/04/21 05:14:46;;;;;;;9.13;5.18;;;;;;;;;;5392183;26;20081;-60
2024/04/21 05:17:15;;;;;;;8.75;4.97;;;;;;;;;;5402858;26;20450;-61
2024/04/21 05:19:41;;;;;;;7.82;4.70;;;;;;;;;;5378903;26;20004;-62
2024/04/21 05:22:09;;;;;;;9.07;5.22;;;;;;;;;;5379321;26;20356;-62
2024/04/21 05:24:38;;;;;;;8.00;4.75;;;;;;;;;;5377299;26;20011;-62
2024/04/21 05:27:07;;;;;;;8.73;4.85;;;;;;;;;;5378906;26;20053;-61
2024/04/21 05:29:33;;;;;;;7.72;4.78;;;;;;;;;;5379801;26;19996;-61
2024/04/21 05:32:01;;;;;;;8.10;4.60;;;;;;;;;;5375960;26;20016;-62
2024/04/21 05:34:28;;;;;;;7.13;4.75;;;;;;;;;;5381954;26;19996;-61
2024/04/21 05:36:56;;;;;;;7.40;4.32;;;;;;;;;;5390404;26;20415;-58
2024/04/21 05:39:24;;;;;;;9.77;5.15;;;;;;;;;;5379245;26;20021;-62
2024/04/21 05:41:56;;;;;;;9.07;5.13;;;;;;;;;;5379310;26;20022;-64
2024/04/21 05:44:22;;;;;;;8.43;4.85;;;;;;;;;;5393917;26;20004;-61
2024/04/21 05:46:50;;;;;;;8.68;4.50;;;;;;;;;;5378523;26;20000;-61
2024/04/21 05:49:19;;;;;;;8.45;5.35;;;;;;;;;;5378476;26;20004;-62
2024/04/21 05:51:48;;;;;;;7.30;4.35;;;;;;;;;;5366866;26;20004;-62
2024/04/21 05:54:14;;;;;;;8.02;4.60;;;;;;;;;;5378922;26;20471;-61
2024/04/21 05:56:43;;;;;;;7.70;4.72;;;;;;;;;;5378334;26;20000;-61
2024/04/21 05:59:12;;;;;;;7.97;4.80;;;;;;;;;;5379085;26;20069;-60
2024/04/21 06:01:40;;;;;;;9.25;5.03;;;;;;;;;;5384695;26;20044;-62
2024/04/21 06:04:06;;;;;;;7.88;5.03;;;;;;;;;;5386048;26;20004;-61
2024/04/21 06:06:34;;;;;;;7.82;4.70;;;;;;;;;;5378420;26;20084;-59
2024/04/21 06:09:00;;;;;;;7.40;4.18;;;;;;;;;;5378541;26;20004;-62
2024/04/21 06:11:29;;;;;;;7.38;4.20;;;;;;;;;;5378191;26;20016;-62
2024/04/21 06:13:55;;;;;;;7.25;4.25;;;;;;;;;;5378935;26;20000;-62
2024/04/21 06:16:26;;;;;;;7.63;4.35;;;;;;;;;;5378613;26;20004;-62
2024/04/21 06:18:52;;;;;;;7.68;4.50;;;;;;;;;;5378849;26;20008;-61
2024/04/21 06:21:21;;;;;;;7.15;4.75;;;;;;;;;;5378302;26;20023;-62
2024/04/21 06:23:46;;;;;;;8.00;4.45;;;;;;;;;;5378455;26;20008;-61
2024/04/21 06:26:15;;;;;;;7.38;4.65;;;;;;;;;;5375790;26;20085;-61
2024/04/21 06:28:41;;;;;;;7.97;4.65;;;;;;;;;;5385888;26;20008;-59
2024/04/21 06:31:10;;;;;;;8.13;4.50;;;;;;;;;;5381888;26;20406;-62
2024/04/21 06:33:39;;;;;;;7.95;4.60;;;;;;;;;;5381395;26;20008;-62
2024/04/21 06:36:08;;;;;;;7.10;4.43;;;;;;;;;;5381688;26;20004;-62
2024/04/21 06:38:34;;;;;;;8.40;4.88;;;;;;;;;;5381544;26;20074;-62
2024/04/21 06:41:02;;;;;;;7.85;5.30;;;;;;;;;;5381882;26;20398;-61
2024/04/21 06:43:28;;;;;;;8.15;4.45;;;;;;;;;;5381147;26;20440;-62
2024/04/21 06:45:57;;;;;;;7.95;4.28;;;;;;;;;;5381428;26;20019;-62
2024/04/21 06:48:23;;;;;;;7.57;4.43;;;;;;;;;;5381406;26;20446;-62
2024/04/21 06:50:54;;;;;;;8.23;4.63;;;;;;;;;;5381574;26;20008;-62
2024/04/21 06:53:20;;;;;;;7.45;4.57;;;;;;;;;;5384272;26;20020;-61
2024/04/21 06:55:49;;;;;;;8.63;4.47;;;;;;;;;;5380736;26;20004;-61
2024/04/21 06:58:14;;;;;;;6.43;4.00;;;;;;;;;;5381115;26;20004;-62
2024/04/21 07:00:44;;;;;;;7.63;4.20;;;;;;;;;;5375328;26;20404;-61
2024/04/21 07:03:09;;;;;;;7.25;3.70;;;;;;;;;;5375800;26;20076;-62
2024/04/21 07:05:38;;;;;;;7.53;4.00;;;;;;;;;;5375170;26;20382;-62
2024/04/21 07:08:07;;;;;;;6.80;3.47;;;;;;;;;;5378485;26;19996;-58
2024/04/21 07:10:36;;;;;;;6.22;3.80;;;;;;;;;;5373154;26;20004;-61
2024/04/21 07:13:01;;;;;;;7.40;4.35;;;;;;;;;;5376139;26;20357;-62
2024/04/21 07:15:30;;;;;;;8.02;3.70;;;;;;;;;;5381076;26;20074;-62
2024/04/21 07:17:56;;;;;;;5.20;3.45;;;;;;;;;;5380884;26;20189;-62
2024/04/21 07:20:24;;;;;;;7.07;4.05;;;;;;;;;;5378806;26;20323;-62
2024/04/21 07:22:50;;;;;;;5.72;3.63;;;;;;;;;;5380612;26;19996;-62
2024/04/21 07:25:22;;;;;;;7.30;3.90;;;;;;;;;;5380620;26;20015;-61
2024/04/21 07:27:50;;;;;;;5.85;3.45;;;;;;;;;;5375984;26;20008;-62
2024/04/21 07:30:16;;;;;;;5.97;3.63;;;;;;;;;;5380577;26;20442;-61
2024/04/21 07:32:45;;;;;;;5.63;3.58;;;;;;;;;;5374900;26;19996;-61
2024/04/21 07:35:11;;;;;;;8.10;3.70;;;;;;;;;;5374780;26;20012;-61
2024/04/21 07:37:40;;;;;;;5.05;2.97;;;;;;;;;;5395233;26;20087;-61
2024/04/21 07:40:07;;;;;;;5.50;3.13;;;;;;;;;;5381199;26;20447;-61
2024/04/21 07:42:38;;;;;;;5.20;2.85;;;;;;;;;;5380463;26;20004;-61
2024/04/21 07:45:05;;;;;;;5.25;2.85;;;;;;;;;;5392463;26;20000;-61
2024/04/21 07:47:33;;;;;;;4.68;2.45;;;;;;;;;;5383217;26;20077;-62
2024/04/21 07:49:59;;;;;;;4.40;2.38;;;;;;;;;;5380948;26;20004;-62
2024/04/21 07:52:28;;;;;;;4.43;2.63;;;;;;;;;;5379936;26;20004;-63
2024/04/21 07:54:54;;;;;;;4.65;2.20;;;;;;;;;;5380388;26;20069;-62
2024/04/21 07:57:23;;;;;;;5.47;2.58;;;;;;;;;;5380248;26;20008;-62
2024/04/21 07:59:51;;;;;;;5.45;2.60;;;;;;;;;;5381222;26;20011;-63
2024/04/21 08:02:20;;;;;;;3.08;1.50;;;;;;;;;;5379946;26;20385;-62
2024/04/21 08:04:45;;;;;;;2.28;1.40;;;;;;;;;;5381353;26;20008;-62
2024/04/21 08:07:14;;;;;;;4.05;1.50;;;;;;;;;;5376191;26;20425;-62
2024/04/21 08:09:40;;;;;;;3.65;1.45;;;;;;;;;;5380133;26;20011;-61
2024/04/21 08:12:09;;;;;;;3.20;1.70;;;;;;;;;;5379740;26;20499;-62
2024/04/21 08:14:35;;;;;;;4.07;1.80;;;;;;;;;;5380424;26;20004;-61
2024/04/21 08:17:06;;;;;;;4.20;1.70;;;;;;;;;;5380031;26;20010;-56
2024/04/21 08:19:32;;;;;;;5.35;2.15;;;;;;;;;;5381079;26;20443;-62
2024/04/21 08:22:01;;;;;;;2.95;1.70;;;;;;;;;;5380378;26;20059;-62
2024/04/21 08:24:27;;;;;;;6.82;1.92;;;;;;;;;;5368804;26;20008;-62
2024/04/21 08:26:56;;;;;;;3.13;1.73;;;;;;;;;;5371985;26;20000;-62
2024/04/21 08:29:22;;;;;;;3.33;2.03;;;;;;;;;;5380155;26;20000;-61
2024/04/21 08:31:51;;;;;;;5.22;2.20;;;;;;;;;;5379633;26;20340;-63
2024/04/21 08:34:22;;;;;;;5.55;2.55;;;;;;;;;;5373444;26;20012;-63
2024/04/21 08:36:50;;;;;;;4.30;2.42;;;;;;;;;;5380024;26;20371;-63
2024/04/21 08:39:16;;;;;;;4.45;2.40;;;;;;;;;;5380152;26;20019;-62
2024/04/21 08:41:45;;;;;;;5.53;2.78;;;;;;;;;;5367400;26;20440;-63
2024/04/21 08:44:12;;;;;;;3.70;2.33;;;;;;;;;;5370843;26;20012;-62
2024/04/21 08:46:42;;;;;;;4.22;2.40;;;;;;;;;;5376882;26;20001;-62
2024/04/21 08:49:08;;;;;;;4.88;2.97;;;;;;;;;;5379262;26;20440;-63
2024/04/21 08:51:41;;;;;;;5.40;2.53;;;;;;;;;;5380050;26;19996;-63
2024/04/21 08:54:07;;;;;;;6.57;2.92;;;;;;;;;;5392486;26;20010;-63
2024/04/21 08:56:36;;;;;;;4.82;2.65;;;;;;;;;;5382038;26;20000;-62
2024/04/21 08:59:02;;;;;;;5.18;2.40;;;;;;;;;;5374080;26;20008;-61
2024/04/21 09:01:31;;;;;;;5.32;2.83;;;;;;;;;;5370249;26;20008;-63
2024/04/21 09:03:57;;;;;;;5.82;3.25;;;;;;;;;;5374995;26;20035;-63
2024/04/21 09:06:27;;;;;;;4.93;2.80;;;;;;;;;;5379440;26;20003;-62
2024/04/21 09:08:56;;;;;;;4.75;3.00;;;;;;;;;;5373200;26;20015;-62
2024/04/21 09:11:27;;;;;;;4.53;2.28;;;;;;;;;;5375172;26;20397;-62
2024/04/21 09:13:54;;;;;;;3.75;2.22;;;;;;;;;;5374139;26;20020;-62
2024/04/21 09:16:22;;;;;;;4.38;2.50;;;;;;;;;;5370810;26;20004;-63
2024/04/21 09:18:48;;;;;;;3.45;1.90;;;;;;;;;;5378634;26;20012;-62
2024/04/21 09:21:17;;;;;;;3.65;1.77;;;;;;;;;;5378498;26;20016;-63
2024/04/21 09:23:42;;;;;;;5.28;2.17;;;;;;;;;;5371853;26;20383;-62
2024/04/21 09:26:14;;;;;;;4.60;2.35;;;;;;;;;;5378603;26;20089;-62
2024/04/21 09:28:42;;;;;;;4.78;3.05;;;;;;;;;;5371688;26;20004;-62
2024/04/21 09:31:11;;;;;;;4.10;2.47;;;;;;;;;;5369349;26;20124;-62
2024/04/21 09:33:37;;;;;;;6.00;2.60;;;;;;;;;;5372735;26;20028;-63
2024/04/21 09:36:08;;;;;;;4.53;2.22;;;;;;;;;;5373131;26;20000;-63
2024/04/21 09:38:35;;;;;;;3.53;1.88;;;;;;;;;;5362345;26;20016;-63
2024/04/21 09:41:06;;;;;;;2.88;1.30;;;;;;;;;;5371621;26;20009;-62
2024/04/21 09:43:35;;;;;;;4.07;1.40;;;;;;;;;;5372307;26;20078;-63
2024/04/21 09:46:04;;;;;;;2.60;1.27;;;;;;;;;;5370641;26;20448;-62
2024/04/21 09:48:33;;;;;;;3.53;1.52;;;;;;;;;;5371957;26;20023;-62
2024/04/21 09:51:02;;;;;;;4.10;1.70;;;;;;;;;;5376746;26;20293;-63
2024/04/21 09:53:29;;;;;;;3.13;1.77;;;;;;;;;;5378521;26;20004;-63
2024/04/21 09:55:59;;;;;;;2.38;1.52;;;;;;;;;;5378688;26;20004;-63
2024/04/21 09:58:27;;;;;;;3.60;2.00;;;;;;;;;;5377358;26;20008;-62
2024/04/21 10:01:03;;;;;;;4.10;1.80;;;;;;;;;;5378589;26;20054;-63
2024/04/21 10:03:31;;;;;;;4.40;2.05;;;;;;;;;;5382347;26;20463;-62
2024/04/21 10:06:01;;;;;;;3.45;1.70;;;;;;;;;;5381914;26;20028;-63
2024/04/21 10:08:28;;;;;;;3.38;1.83;;;;;;;;;;5381423;26;20027;-62
2024/04/21 10:10:58;;;;;;;3.72;2.08;;;;;;;;;;5381188;26;20008;-60
2024/04/21 10:13:24;;;;;;;4.15;2.33;;;;;;;;;;5381543;26;20012;-61
2024/04/21 10:15:54;;;;;;;4.10;2.17;;;;;;;;;;5382086;26;19996;-61
2024/04/21 10:18:23;;;;;;;4.68;2.40;;;;;;;;;;5366698;26;20024;-62
2024/04/21 10:20:52;;;;;;;4.20;2.08;;;;;;;;;;5366747;26;20017;-62
2024/04/21 10:23:19;;;;;;;4.82;2.75;;;;;;;;;;5374411;26;20020;-59
2024/04/21 10:25:49;;;;;;;4.95;2.70;;;;;;;;;;5365013;26;20008;-63
2024/04/21 10:28:24;;;;;;;4.15;2.05;;;;;;;;;;5372326;26;20012;-60
2024/04/21 10:30:53;;;;;;;3.92;2.15;;;;;;;;;;5376612;26;20008;-61
2024/04/21 10:33:30;;;;;;;3.22;1.58;;;;;;;;;;5376684;26;20082;-62
2024/04/21 10:35:58;;;;;;;2.00;1.00;;;;;;;;;;5375180;26;20440;-56
2024/04/21 10:38:25;;;;;;;12.75;5.43;;;;;;;;;;5364152;26;20019;-65
2024/04/21 10:40:54;;;;;;;12.32;3.72;;;;;;;;;;5372734;26;20320;-62
2024/04/21 10:43:21;;;;;;;3.38;1.48;;;;;;;;;;5381524;26;20063;-62
2024/04/21 10:45:50;;;;;;;4.45;1.40;;;;;;;;;;5373124;26;20014;-62
2024/04/21 10:48:17;;;;;;;2.42;1.30;;;;;;;;;;5371685;26;20016;-62
2024/04/21 10:50:48;;;;;;;6.20;1.17;;;;;;;;;;5367688;26;20001;-62
2024/04/21 10:53:14;;;;;;;4.75;1.67;;;;;;;;;;5386327;26;20034;-62
2024/04/21 10:55:44;;;;;;;2.13;1.13;;;;;;;;;;5381711;26;20455;-61
2024/04/21 10:58:10;;;;;;;4.78;2.20;;;;;;;;;;5366536;26;20001;-58
2024/04/21 11:00:39;;;;;;;3.58;1.50;;;;;;;;;;5378263;26;20019;-62
2024/04/21 11:03:05;;;;;;;3.78;1.25;;;;;;;;;;5388726;26;20468;-63
2024/04/21 11:05:42;;;;;;;2.00;1.40;;;;;;;;;;5380812;26;20008;-60
2024/04/21 11:08:11;;;;;;;2.42;1.30;;;;;;;;;;5375877;26;20336;-62
2024/04/21 11:10:39;;;;;;;2.30;1.40;;;;;;;;;;5375480;26;20012;-61
2024/04/21 11:13:06;;;;;;;2.38;1.40;;;;;;;;;;5373763;26;20008;-62
2024/04/21 11:15:42;;;;;;;2.67;1.23;;;;;;;;;;5380293;26;20044;-62
2024/04/21 11:18:08;;;;;;;3.70;1.60;;;;;;;;;;5369342;26;20002;-60
2024/04/21 11:20:37;;;;;;;2.65;1.30;;;;;;;;;;5371616;26;20005;-66
2024/04/21 11:23:03;;;;;;;3.03;1.52;;;;;;;;;;5374645;26;20550;-62
2024/04/21 11:25:35;;;;;;;4.55;1.92;;;;;;;;;;5371510;26;20115;-62
2024/04/21 11:28:08;;;;;;;2.50;1.48;;;;;;;;;;5381905;26;20467;-62
2024/04/21 11:30:37;;;;;;;3.10;1.50;;;;;;;;;;5380380;26;20015;-62
2024/04/21 11:33:03;;;;;;;3.08;1.60;;;;;;;;;;5380935;26;20004;-62
2024/04/21 11:35:32;;;;;;;2.75;1.58;;;;;;;;;;5374922;26;20370;-61
2024/04/21 11:37:58;;;;;;;2.95;1.88;;;;;;;;;;5380980;26;20011;-61
2024/04/21 11:40:27;;;;;;;3.25;1.60;;;;;;;;;;5370684;26;20077;-62
2024/04/21 11:42:56;;;;;;;2.40;1.58;;;;;;;;;;5375127;26;20035;-62
2024/04/21 11:45:29;;;;;;;2.40;1.35;;;;;;;;;;5383443;26;20000;-64
2024/04/21 11:47:55;;;;;;;4.13;1.70;;;;;;;;;;5372678;26;20340;-61
2024/04/21 11:50:24;;;;;;;3.38;1.50;;;;;;;;;;5372134;26;20020;-61
2024/04/21 11:52:51;;;;;;;2.75;1.50;;;;;;;;;;5379558;26;20008;-61
2024/04/21 11:55:20;;;;;;;2.63;1.33;;;;;;;;;;5377470;26;20008;-61
2024/04/21 11:57:49;;;;;;;2.30;1.30;;;;;;;;;;5378504;26;20451;-62
2024/04/21 12:00:20;;;;;;;3.15;1.60;;;;;;;;;;5362574;26;20015;-62
2024/04/21 12:02:46;;;;;;;3.75;1.80;;;;;;;;;;5361282;26;20344;-62
2024/04/21 12:05:15;;;;;;;2.60;1.40;;;;;;;;;;5356232;26;20009;-62
2024/04/21 12:07:41;;;;;;;3.58;1.60;;;;;;;;;;5363279;26;20012;-62
2024/04/21 12:10:09;;;;;;;2.05;1.35;;;;;;;;;;5365272;26;20471;-62
2024/04/21 12:12:35;;;;;;;2.67;1.65;;;;;;;;;;5370421;26;20304;-60
2024/04/21 12:15:04;;;;;;;3.10;1.80;;;;;;;;;;5371282;26;20040;-62
2024/04/21 12:17:32;;;;;;;3.97;2.15;;;;;;;;;;5371496;26;20376;-64
2024/04/21 12:20:01;;;;;;;3.30;1.80;;;;;;;;;;5368203;26;20005;-62
2024/04/21 12:22:27;;;;;;;3.63;2.10;;;;;;;;;;5380357;26;20774;-62
2024/04/21 12:24:55;;;;;;;4.40;2.42;;;;;;;;;;5367959;26;20000;-62
2024/04/21 12:27:22;;;;;;;3.97;2.63;;;;;;;;;;5377330;26;20000;-62
2024/04/21 12:29:51;;;;;;;5.57;2.65;;;;;;;;;;5379940;26;20335;-62
2024/04/21 12:32:17;;;;;;;4.95;2.30;;;;;;;;;;5376061;26;20114;-62
2024/04/21 12:34:48;;;;;;;3.30;1.85;;;;;;;;;;5378860;26;20008;-63
2024/04/21 12:37:14;;;;;;;2.90;1.70;;;;;;;;;;5374060;26;20013;-63
2024/04/21 12:39:42;;;;;;;3.10;1.70;;;;;;;;;;5375618;26;20001;-63
2024/04/21 12:42:11;;;;;;;2.55;1.50;;;;;;;;;;5371011;26;20370;-63
2024/04/21 12:44:40;;;;;;;3.50;1.65;;;;;;;;;;5374454;26;20447;-62
2024/04/21 12:47:06;;;;;;;3.42;1.15;;;;;;;;;;5362710;26;20015;-62
2024/04/21 12:49:37;;;;;;;2.08;1.30;;;;;;;;;;5379238;26;20000;-62
2024/04/21 12:52:06;;;;;;;2.30;1.10;;;;;;;;;;5379841;26;20011;-63
2024/04/21 12:54:34;;;;;;;2.50;1.20;;;;;;;;;;5376193;26;20095;-63
2024/04/21 12:57:07;;;;;;;3.63;1.33;;;;;;;;;;5385788;26;20001;-61
2024/04/21 12:59:35;;;;;;;1.63;0.93;;;;;;;;;;5383381;26;20004;-63
2024/04/21 13:02:01;;;;;;;3.00;1.15;;;;;;;;;;5385349;26;20015;-61
2024/04/21 13:04:30;;;;;;;2.65;1.30;;;;;;;;;;5369698;26;20008;-61
2024/04/21 13:06:56;;;;;;;2.22;1.30;;;;;;;;;;5364911;26;20395;-62
2024/04/21 13:09:27;;;;;;;1.52;1.00;;;;;;;;;;5376248;26;20012;-61
2024/04/21 13:11:53;;;;;;;3.65;1.50;;;;;;;;;;5364385;26;20019;-61
2024/04/21 13:14:22;;;;;;;2.17;1.05;;;;;;;;;;5369469;26;20008;-61
2024/04/21 13:16:47;;;;;;;2.88;1.10;;;;;;;;;;5368115;26;20012;-62
2024/04/21 13:19:17;;;;;;;2.00;1.08;;;;;;;;;;5375460;26;20016;-62
2024/04/21 13:21:46;;;;;;;2.70;1.50;;;;;;;;;;5371541;26;20001;-62
2024/04/21 13:24:15;;;;;;;3.10;1.33;;;;;;;;;;5383727;26;20008;-62
2024/04/21 13:26:44;;;;;;;3.47;1.60;;;;;;;;;;5380481;26;20012;-62
2024/04/21 13:29:13;;;;;;;2.50;1.38;;;;;;;;;;5380919;26;20451;-62
2024/04/21 13:31:38;;;;;;;2.60;1.27;;;;;;;;;;5374883;26;20008;-53
2024/04/21 13:34:07;;;;;;;2.75;1.45;;;;;;;;;;5376883;26;20463;-62
2024/04/21 13:36:33;;;;;;;3.22;1.50;;;;;;;;;;5377144;26;20004;-62
2024/04/21 13:39:01;;;;;;;2.42;1.50;;;;;;;;;;5366556;26;20011;-62
2024/04/21 13:41:27;;;;;;;2.78;1.50;;;;;;;;;;5380796;26;20372;-61
2024/04/21 13:43:58;;;;;;;3.30;1.52;;;;;;;;;;5382423;26;20019;-62
2024/04/21 13:46:24;;;;;;;3.95;1.95;;;;;;;;;;5382559;26;20011;-61
2024/04/21 13:48:53;;;;;;;2.95;1.60;;;;;;;;;;5384178;26;20058;-62
2024/04/21 13:51:19;;;;;;;3.17;1.77;;;;;;;;;;5381140;26;20429;-60
2024/04/21 13:53:47;;;;;;;3.55;1.90;;;;;;;;;;5373191;26;20009;-62
2024/04/21 13:56:13;;;;;;;3.78;2.10;;;;;;;;;;5381477;26;20019;-62
2024/04/21 13:58:42;;;;;;;4.35;2.10;;;;;;;;;;5389577;26;20085;-61
2024/04/21 14:01:11;;;;;;;3.97;2.30;;;;;;;;;;5382653;26;20069;-62
2024/04/21 14:03:39;;;;;;;3.15;1.80;;;;;;;;;;5395434;26;20096;-62
2024/04/21 14:06:06;;;;;;;4.05;2.13;;;;;;;;;;5382637;26;20455;-61
2024/04/21 14:08:34;;;;;;;4.00;1.95;;;;;;;;;;5381855;26;20004;-66
2024/04/21 14:11:00;;;;;;;4.15;2.40;;;;;;;;;;5372309;26;20027;-62
2024/04/21 14:13:29;;;;;;;2.55;1.80;;;;;;;;;;5365218;26;20015;-61
2024/04/21 14:15:54;;;;;;;2.65;1.58;;;;;;;;;;5368093;26;20015;-61
2024/04/21 14:18:27;;;;;;;3.15;1.92;;;;;;;;;;5365449;26;20004;-61
2024/04/21 14:20:54;;;;;;;3.92;2.05;;;;;;;;;;5375927;26;20008;-62
2024/04/21 14:23:23;;;;;;;3.45;1.88;;;;;;;;;;5381830;26;20000;-62
2024/04/21 14:25:49;;;;;;;5.55;3.20;;;;;;;;;;5381487;26;20011;-62
2024/04/21 14:28:17;;;;;;;4.57;2.65;;;;;;;;;;5396534;26;20008;-62
2024/04/21 14:30:44;;;;;;;4.32;2.70;;;;;;;;;;5382409;26;20001;-62
2024/04/21 14:33:12;;;;;;;4.28;2.33;;;;;;;;;;5381919;26;20035;-61
2024/04/21 14:35:41;;;;;;;4.50;2.10;;;;;;;;;;5381927;26;20089;-61
2024/04/21 14:38:09;;;;;;;5.05;3.00;;;;;;;;;;5381902;26;20069;-62
2024/04/21 14:40:35;;;;;;;4.53;2.70;;;;;;;;;;5382208;26;20070;-61
2024/04/21 14:43:04;;;;;;;5.38;2.70;;;;;;;;;;5381897;26;20008;-57
2024/04/21 14:45:29;;;;;;;4.80;2.20;;;;;;;;;;5381937;26;20454;-61
2024/04/21 14:47:58;;;;;;;5.65;2.17;;;;;;;;;;5380797;26;20015;-62